Huvudsida
METAR-TAF:

METAR-TAF

Flygplatser :

Arvidsjaur flygplats

Arvidsjaur, Sverige

latitud: 65-35-25N, longitud: 019-16-55E, höjd: 379 m

Aktuellt väderrapport

Denna rapport gjordes för 12 minuter sedan, klockan 06:20 UTC
Vind 13 kt från väst/nordväst
Temperatur 11°C
Fuktighet 58%
Tryck 1001 hPa
Sikt 10 km eller mer
Få moln på en höjd av 3000 ft

METAR: ESNX 210620Z 29013KT 9999 FEW030 11/03 Q1001

Tid: 08:32 (06:32 UTC)

Väderprognos

Denna rapport gjordes för 1 timme och 2 minuter sedan, klockan 05:30 UTC
Prognos gäller från 21 kl. 06 UTC till 21 kl. 08 UTC
Vind 12 kt från väst/nordväst
Sikt 10 km eller mer
Inga moln under 1 500 m eller inga cumulonimbus

TAF: ESNX 210530Z 2106/2108 29012KT CAVOK

Aktuella väderrapporter och prognoser från 4000 flygplatser (METAR- och TAF-rapporter).

De tillgängliga stationerna syns som gula och röda prickar på kartan.

För musen över prickarna för att se namnen på stationerna.

Klicka sedan för att få väderrapporter och prognoser.

För att ändra kartan: Klicka på de gröna knapparna med ett svart kors på för att zooma in; den gröna knappen med ett streck på för att zooma ut; eller på de gröna pilarna för angränsande kartor.


METAR-TAF: